sensor_id;sensor_type;location;lat;lon;timestamp;P1;durP1;ratioP1;P2;durP2;ratioP2
23634;SDS011;11994;51.038;16.974;2022-10-16T00:01:22;5.60;;;4.78;;
23634;SDS011;11994;51.038;16.974;2022-10-16T00:03:51;8.00;;;5.10;;
23634;SDS011;11994;51.038;16.974;2022-10-16T00:06:19;4.75;;;4.22;;
23634;SDS011;11994;51.038;16.974;2022-10-16T00:08:47;5.03;;;4.12;;
23634;SDS011;11994;51.038;16.974;2022-10-16T00:11:15;4.75;;;4.03;;
23634;SDS011;11994;51.038;16.974;2022-10-16T00:16:12;6.08;;;4.58;;
23634;SDS011;11994;51.038;16.974;2022-10-16T00:18:39;8.03;;;5.00;;
23634;SDS011;11994;51.038;16.974;2022-10-16T00:21:12;5.65;;;4.37;;
23634;SDS011;11994;51.038;16.974;2022-10-16T00:23:37;5.17;;;4.03;;
23634;SDS011;11994;51.038;16.974;2022-10-16T00:26:05;6.92;;;4.87;;
23634;SDS011;11994;51.038;16.974;2022-10-16T00:28:35;5.72;;;4.67;;
23634;SDS011;11994;51.038;16.974;2022-10-16T00:31:05;6.45;;;4.87;;
23634;SDS011;11994;51.038;16.974;2022-10-16T00:33:33;8.65;;;5.22;;
23634;SDS011;11994;51.038;16.974;2022-10-16T00:36:01;6.90;;;5.00;;
23634;SDS011;11994;51.038;16.974;2022-10-16T00:38:28;6.35;;;4.67;;
23634;SDS011;11994;51.038;16.974;2022-10-16T00:40:55;6.97;;;5.05;;
23634;SDS011;11994;51.038;16.974;2022-10-16T00:46:10;6.62;;;5.40;;
23634;SDS011;11994;51.038;16.974;2022-10-16T00:49:05;6.42;;;4.87;;
23634;SDS011;11994;51.038;16.974;2022-10-16T00:54:14;8.68;;;5.12;;
23634;SDS011;11994;51.038;16.974;2022-10-16T00:56:45;6.42;;;5.40;;
23634;SDS011;11994;51.038;16.974;2022-10-16T00:59:32;8.30;;;5.62;;
23634;SDS011;11994;51.038;16.974;2022-10-16T01:01:58;8.30;;;6.15;;
23634;SDS011;11994;51.038;16.974;2022-10-16T01:04:25;9.53;;;6.55;;
23634;SDS011;11994;51.038;16.974;2022-10-16T01:06:57;7.30;;;5.55;;
23634;SDS011;11994;51.038;16.974;2022-10-16T01:12:41;8.28;;;5.92;;
23634;SDS011;11994;51.038;16.974;2022-10-16T01:18:18;7.87;;;6.30;;
23634;SDS011;11994;51.038;16.974;2022-10-16T01:20:53;8.58;;;5.92;;
23634;SDS011;11994;51.038;16.974;2022-10-16T01:23:35;7.92;;;5.58;;
23634;SDS011;11994;51.038;16.974;2022-10-16T01:31:49;9.38;;;5.87;;
23634;SDS011;11994;51.038;16.974;2022-10-16T01:34:24;11.12;;;6.70;;
23634;SDS011;11994;51.038;16.974;2022-10-16T01:37:05;11.18;;;5.95;;
23634;SDS011;11994;51.038;16.974;2022-10-16T01:39:38;7.42;;;5.28;;
23634;SDS011;11994;51.038;16.974;2022-10-16T01:42:27;8.10;;;5.83;;
23634;SDS011;11994;51.038;16.974;2022-10-16T01:44:50;7.85;;;6.20;;
23634;SDS011;11994;51.038;16.974;2022-10-16T01:47:18;8.68;;;6.00;;
23634;SDS011;11994;51.038;16.974;2022-10-16T01:49:48;8.55;;;6.12;;
23634;SDS011;11994;51.038;16.974;2022-10-16T01:52:17;9.95;;;6.25;;
23634;SDS011;11994;51.038;16.974;2022-10-16T01:54:47;10.43;;;5.90;;
23634;SDS011;11994;51.038;16.974;2022-10-16T01:57:15;9.68;;;5.92;;
23634;SDS011;11994;51.038;16.974;2022-10-16T01:59:44;9.35;;;6.03;;
23634;SDS011;11994;51.038;16.974;2022-10-16T02:02:17;9.75;;;6.42;;
23634;SDS011;11994;51.038;16.974;2022-10-16T02:04:47;7.75;;;6.40;;
23634;SDS011;11994;51.038;16.974;2022-10-16T02:07:29;11.48;;;5.67;;
23634;SDS011;11994;51.038;16.974;2022-10-16T02:09:55;8.63;;;5.90;;
23634;SDS011;11994;51.038;16.974;2022-10-16T02:14:56;7.40;;;6.00;;
23634;SDS011;11994;51.038;16.974;2022-10-16T02:17:23;8.25;;;6.00;;
23634;SDS011;11994;51.038;16.974;2022-10-16T02:19:51;8.43;;;6.20;;
23634;SDS011;11994;51.038;16.974;2022-10-16T02:24:55;6.42;;;5.40;;
23634;SDS011;11994;51.038;16.974;2022-10-16T02:30:36;12.10;;;5.83;;
23634;SDS011;11994;51.038;16.974;2022-10-16T02:33:13;10.25;;;6.05;;
23634;SDS011;11994;51.038;16.974;2022-10-16T02:35:41;10.70;;;6.12;;
23634;SDS011;11994;51.038;16.974;2022-10-16T02:38:10;7.97;;;6.08;;
23634;SDS011;11994;51.038;16.974;2022-10-16T02:40:38;6.37;;;5.53;;
23634;SDS011;11994;51.038;16.974;2022-10-16T02:43:05;6.47;;;5.55;;
23634;SDS011;11994;51.038;16.974;2022-10-16T02:45:32;6.62;;;5.92;;
23634;SDS011;11994;51.038;16.974;2022-10-16T02:47:58;6.67;;;5.97;;
23634;SDS011;11994;51.038;16.974;2022-10-16T02:50:25;8.25;;;6.58;;
23634;SDS011;11994;51.038;16.974;2022-10-16T02:52:51;8.00;;;6.70;;
23634;SDS011;11994;51.038;16.974;2022-10-16T02:55:17;9.25;;;6.08;;
23634;SDS011;11994;51.038;16.974;2022-10-16T02:57:43;8.15;;;5.47;;
23634;SDS011;11994;51.038;16.974;2022-10-16T03:00:11;6.85;;;5.75;;
23634;SDS011;11994;51.038;16.974;2022-10-16T03:02:40;8.90;;;6.05;;
23634;SDS011;11994;51.038;16.974;2022-10-16T03:05:06;8.75;;;6.37;;
23634;SDS011;11994;51.038;16.974;2022-10-16T03:07:34;11.12;;;6.67;;
23634;SDS011;11994;51.038;16.974;2022-10-16T03:10:00;6.70;;;6.00;;
23634;SDS011;11994;51.038;16.974;2022-10-16T03:12:26;6.40;;;5.28;;
23634;SDS011;11994;51.038;16.974;2022-10-16T03:14:55;7.33;;;5.45;;
23634;SDS011;11994;51.038;16.974;2022-10-16T03:17:22;7.78;;;5.80;;
23634;SDS011;11994;51.038;16.974;2022-10-16T03:19:48;7.37;;;5.97;;
23634;SDS011;11994;51.038;16.974;2022-10-16T03:22:15;8.15;;;5.95;;
23634;SDS011;11994;51.038;16.974;2022-10-16T03:24:41;6.92;;;5.75;;
23634;SDS011;11994;51.038;16.974;2022-10-16T03:27:07;6.80;;;4.67;;
23634;SDS011;11994;51.038;16.974;2022-10-16T03:29:33;6.37;;;5.53;;
23634;SDS011;11994;51.038;16.974;2022-10-16T03:31:59;7.92;;;5.67;;
23634;SDS011;11994;51.038;16.974;2022-10-16T03:34:26;8.23;;;6.12;;
23634;SDS011;11994;51.038;16.974;2022-10-16T03:36:53;6.65;;;5.28;;
23634;SDS011;11994;51.038;16.974;2022-10-16T03:39:19;6.28;;;4.97;;
23634;SDS011;11994;51.038;16.974;2022-10-16T03:41:45;6.42;;;5.37;;
23634;SDS011;11994;51.038;16.974;2022-10-16T03:44:11;8.83;;;6.30;;
23634;SDS011;11994;51.038;16.974;2022-10-16T03:46:38;8.00;;;6.12;;
23634;SDS011;11994;51.038;16.974;2022-10-16T03:49:04;7.60;;;5.80;;
23634;SDS011;11994;51.038;16.974;2022-10-16T03:51:30;6.25;;;5.25;;
23634;SDS011;11994;51.038;16.974;2022-10-16T03:53:56;9.03;;;5.53;;
23634;SDS011;11994;51.038;16.974;2022-10-16T03:56:22;7.05;;;5.50;;
23634;SDS011;11994;51.038;16.974;2022-10-16T03:58:48;7.75;;;5.92;;
23634;SDS011;11994;51.038;16.974;2022-10-16T04:01:14;9.00;;;6.03;;
23634;SDS011;11994;51.038;16.974;2022-10-16T04:03:40;8.83;;;5.65;;
23634;SDS011;11994;51.038;16.974;2022-10-16T04:06:07;6.50;;;5.35;;
23634;SDS011;11994;51.038;16.974;2022-10-16T04:08:34;6.08;;;4.53;;
23634;SDS011;11994;51.038;16.974;2022-10-16T04:11:02;9.63;;;5.62;;
23634;SDS011;11994;51.038;16.974;2022-10-16T04:13:28;7.45;;;5.47;;
23634;SDS011;11994;51.038;16.974;2022-10-16T04:15:55;8.40;;;5.58;;
23634;SDS011;11994;51.038;16.974;2022-10-16T04:18:21;7.85;;;5.70;;
23634;SDS011;11994;51.038;16.974;2022-10-16T04:20:47;8.05;;;5.05;;
23634;SDS011;11994;51.038;16.974;2022-10-16T04:23:13;6.75;;;5.12;;
23634;SDS011;11994;51.038;16.974;2022-10-16T04:25:39;6.83;;;5.75;;
23634;SDS011;11994;51.038;16.974;2022-10-16T04:28:05;6.50;;;5.03;;
23634;SDS011;11994;51.038;16.974;2022-10-16T04:30:31;6.62;;;5.60;;
23634;SDS011;11994;51.038;16.974;2022-10-16T04:32:58;5.92;;;5.33;;
23634;SDS011;11994;51.038;16.974;2022-10-16T04:35:25;6.33;;;4.75;;
23634;SDS011;11994;51.038;16.974;2022-10-16T04:37:51;5.45;;;4.65;;
23634;SDS011;11994;51.038;16.974;2022-10-16T04:40:17;6.47;;;4.85;;
23634;SDS011;11994;51.038;16.974;2022-10-16T04:42:43;10.05;;;5.28;;
23634;SDS011;11994;51.038;16.974;2022-10-16T04:45:09;5.97;;;5.10;;
23634;SDS011;11994;51.038;16.974;2022-10-16T04:47:35;7.58;;;5.33;;
23634;SDS011;11994;51.038;16.974;2022-10-16T04:50:01;6.58;;;4.80;;
23634;SDS011;11994;51.038;16.974;2022-10-16T04:52:28;6.50;;;4.35;;
23634;SDS011;11994;51.038;16.974;2022-10-16T04:54:56;10.03;;;5.08;;
23634;SDS011;11994;51.038;16.974;2022-10-16T04:57:25;6.78;;;4.75;;
23634;SDS011;11994;51.038;16.974;2022-10-16T04:59:52;5.83;;;5.22;;
23634;SDS011;11994;51.038;16.974;2022-10-16T05:02:18;6.58;;;5.58;;
23634;SDS011;11994;51.038;16.974;2022-10-16T05:04:44;7.00;;;4.87;;
23634;SDS011;11994;51.038;16.974;2022-10-16T05:07:10;6.92;;;4.53;;
23634;SDS011;11994;51.038;16.974;2022-10-16T05:09:36;6.12;;;5.28;;
23634;SDS011;11994;51.038;16.974;2022-10-16T05:12:02;8.23;;;5.37;;
23634;SDS011;11994;51.038;16.974;2022-10-16T05:14:29;7.65;;;5.97;;
23634;SDS011;11994;51.038;16.974;2022-10-16T05:16:56;7.25;;;5.67;;
23634;SDS011;11994;51.038;16.974;2022-10-16T05:19:23;7.50;;;5.30;;
23634;SDS011;11994;51.038;16.974;2022-10-16T05:21:49;8.85;;;5.40;;
23634;SDS011;11994;51.038;16.974;2022-10-16T05:24:15;9.38;;;5.53;;
23634;SDS011;11994;51.038;16.974;2022-10-16T05:26:41;6.75;;;5.40;;
23634;SDS011;11994;51.038;16.974;2022-10-16T05:29:07;6.85;;;5.78;;
23634;SDS011;11994;51.038;16.974;2022-10-16T05:31:34;7.47;;;6.67;;
23634;SDS011;11994;51.038;16.974;2022-10-16T05:34:01;8.63;;;6.55;;
23634;SDS011;11994;51.038;16.974;2022-10-16T05:36:27;8.98;;;5.28;;
23634;SDS011;11994;51.038;16.974;2022-10-16T05:38:53;9.35;;;6.20;;
23634;SDS011;11994;51.038;16.974;2022-10-16T05:41:19;7.62;;;6.00;;
23634;SDS011;11994;51.038;16.974;2022-10-16T05:43:49;6.62;;;5.83;;
23634;SDS011;11994;51.038;16.974;2022-10-16T05:46:16;6.70;;;5.47;;
23634;SDS011;11994;51.038;16.974;2022-10-16T05:48:42;10.78;;;5.37;;
23634;SDS011;11994;51.038;16.974;2022-10-16T05:51:12;6.55;;;5.12;;
23634;SDS011;11994;51.038;16.974;2022-10-16T05:53:39;6.62;;;5.28;;
23634;SDS011;11994;51.038;16.974;2022-10-16T05:56:07;7.35;;;5.72;;
23634;SDS011;11994;51.038;16.974;2022-10-16T05:58:36;6.50;;;5.55;;
23634;SDS011;11994;51.038;16.974;2022-10-16T06:01:06;5.85;;;4.75;;
23634;SDS011;11994;51.038;16.974;2022-10-16T06:06:13;5.37;;;4.35;;
23634;SDS011;11994;51.038;16.974;2022-10-16T06:08:38;6.37;;;4.45;;
23634;SDS011;11994;51.038;16.974;2022-10-16T06:11:07;6.33;;;4.92;;
23634;SDS011;11994;51.038;16.974;2022-10-16T06:13:36;7.70;;;4.90;;
23634;SDS011;11994;51.038;16.974;2022-10-16T06:16:03;8.00;;;5.00;;
23634;SDS011;11994;51.038;16.974;2022-10-16T06:18:30;6.60;;;4.65;;
23634;SDS011;11994;51.038;16.974;2022-10-16T06:20:56;5.05;;;4.00;;
23634;SDS011;11994;51.038;16.974;2022-10-16T06:23:24;6.40;;;4.33;;
23634;SDS011;11994;51.038;16.974;2022-10-16T06:25:51;5.60;;;4.67;;
23634;SDS011;11994;51.038;16.974;2022-10-16T06:28:17;6.47;;;5.03;;
23634;SDS011;11994;51.038;16.974;2022-10-16T06:30:43;7.92;;;4.85;;
23634;SDS011;11994;51.038;16.974;2022-10-16T06:33:10;5.20;;;4.45;;
23634;SDS011;11994;51.038;16.974;2022-10-16T06:35:37;5.55;;;3.92;;
23634;SDS011;11994;51.038;16.974;2022-10-16T06:38:03;5.85;;;4.37;;
23634;SDS011;11994;51.038;16.974;2022-10-16T06:40:29;5.10;;;4.25;;
23634;SDS011;11994;51.038;16.974;2022-10-16T06:42:55;9.13;;;4.67;;
23634;SDS011;11994;51.038;16.974;2022-10-16T06:45:21;4.62;;;3.47;;
23634;SDS011;11994;51.038;16.974;2022-10-16T06:47:48;3.72;;;3.05;;
23634;SDS011;11994;51.038;16.974;2022-10-16T06:50:14;5.55;;;3.47;;
23634;SDS011;11994;51.038;16.974;2022-10-16T06:52:40;3.47;;;3.17;;
23634;SDS011;11994;51.038;16.974;2022-10-16T06:55:06;4.78;;;3.45;;
23634;SDS011;11994;51.038;16.974;2022-10-16T06:57:33;6.30;;;3.83;;
23634;SDS011;11994;51.038;16.974;2022-10-16T06:59:59;5.37;;;3.08;;
23634;SDS011;11994;51.038;16.974;2022-10-16T07:02:25;4.17;;;3.17;;
23634;SDS011;11994;51.038;16.974;2022-10-16T07:04:51;5.17;;;3.30;;
23634;SDS011;11994;51.038;16.974;2022-10-16T07:07:17;4.20;;;3.40;;
23634;SDS011;11994;51.038;16.974;2022-10-16T07:09:43;4.10;;;3.25;;
23634;SDS011;11994;51.038;16.974;2022-10-16T07:12:09;4.20;;;3.20;;
23634;SDS011;11994;51.038;16.974;2022-10-16T07:14:36;4.22;;;2.90;;
23634;SDS011;11994;51.038;16.974;2022-10-16T07:17:02;3.80;;;3.05;;
23634;SDS011;11994;51.038;16.974;2022-10-16T07:19:28;3.55;;;2.98;;
23634;SDS011;11994;51.038;16.974;2022-10-16T07:21:54;6.28;;;3.22;;
23634;SDS011;11994;51.038;16.974;2022-10-16T07:24:21;4.90;;;4.20;;
23634;SDS011;11994;51.038;16.974;2022-10-16T07:26:47;6.35;;;4.50;;
23634;SDS011;11994;51.038;16.974;2022-10-16T07:29:14;6.03;;;3.92;;
23634;SDS011;11994;51.038;16.974;2022-10-16T07:31:45;4.60;;;3.50;;
23634;SDS011;11994;51.038;16.974;2022-10-16T07:34:13;3.87;;;2.87;;
23634;SDS011;11994;51.038;16.974;2022-10-16T07:36:41;5.58;;;4.22;;
23634;SDS011;11994;51.038;16.974;2022-10-16T07:39:07;6.67;;;3.87;;
23634;SDS011;11994;51.038;16.974;2022-10-16T07:41:34;7.67;;;5.28;;
23634;SDS011;11994;51.038;16.974;2022-10-16T07:44:02;8.10;;;5.17;;
23634;SDS011;11994;51.038;16.974;2022-10-16T07:46:29;6.87;;;4.78;;
23634;SDS011;11994;51.038;16.974;2022-10-16T07:48:56;7.33;;;4.40;;
23634;SDS011;11994;51.038;16.974;2022-10-16T07:51:23;5.05;;;3.35;;
23634;SDS011;11994;51.038;16.974;2022-10-16T07:53:50;4.33;;;2.50;;
23634;SDS011;11994;51.038;16.974;2022-10-16T07:56:17;3.83;;;2.37;;
23634;SDS011;11994;51.038;16.974;2022-10-16T07:58:45;4.17;;;2.65;;
23634;SDS011;11994;51.038;16.974;2022-10-16T08:01:14;3.15;;;2.20;;
23634;SDS011;11994;51.038;16.974;2022-10-16T08:03:42;4.03;;;2.52;;
23634;SDS011;11994;51.038;16.974;2022-10-16T08:06:10;3.30;;;2.10;;
23634;SDS011;11994;51.038;16.974;2022-10-16T08:08:36;3.67;;;2.42;;
23634;SDS011;11994;51.038;16.974;2022-10-16T08:11:02;3.27;;;2.65;;
23634;SDS011;11994;51.038;16.974;2022-10-16T08:13:29;4.25;;;2.35;;
23634;SDS011;11994;51.038;16.974;2022-10-16T08:15:56;3.95;;;2.22;;
23634;SDS011;11994;51.038;16.974;2022-10-16T08:18:22;4.83;;;2.60;;
23634;SDS011;11994;51.038;16.974;2022-10-16T08:20:54;6.40;;;2.58;;
23634;SDS011;11994;51.038;16.974;2022-10-16T08:23:23;3.47;;;2.55;;
23634;SDS011;11994;51.038;16.974;2022-10-16T08:25:51;3.52;;;2.55;;
23634;SDS011;11994;51.038;16.974;2022-10-16T08:28:18;4.70;;;2.40;;
23634;SDS011;11994;51.038;16.974;2022-10-16T08:30:44;3.85;;;2.00;;
23634;SDS011;11994;51.038;16.974;2022-10-16T08:33:10;3.17;;;2.22;;
23634;SDS011;11994;51.038;16.974;2022-10-16T08:35:37;4.37;;;2.40;;
23634;SDS011;11994;51.038;16.974;2022-10-16T08:38:06;3.50;;;2.70;;
23634;SDS011;11994;51.038;16.974;2022-10-16T08:40:33;3.42;;;2.62;;
23634;SDS011;11994;51.038;16.974;2022-10-16T08:43:50;3.65;;;2.40;;
23634;SDS011;11994;51.038;16.974;2022-10-16T08:48:50;4.83;;;2.60;;
23634;SDS011;11994;51.038;16.974;2022-10-16T08:51:23;3.95;;;2.70;;
23634;SDS011;11994;51.038;16.974;2022-10-16T08:56:38;5.42;;;2.47;;
23634;SDS011;11994;51.038;16.974;2022-10-16T08:59:06;7.42;;;2.70;;
23634;SDS011;11994;51.038;16.974;2022-10-16T09:01:37;3.67;;;2.27;;
23634;SDS011;11994;51.038;16.974;2022-10-16T09:04:17;4.28;;;2.15;;
23634;SDS011;11994;51.038;16.974;2022-10-16T09:12:53;3.45;;;2.58;;
23634;SDS011;11994;51.038;16.974;2022-10-16T09:23:51;2.70;;;2.00;;
23634;SDS011;11994;51.038;16.974;2022-10-16T09:26:19;3.22;;;2.10;;
23634;SDS011;11994;51.038;16.974;2022-10-16T09:28:47;4.83;;;2.10;;
23634;SDS011;11994;51.038;16.974;2022-10-16T09:31:14;4.42;;;2.20;;
23634;SDS011;11994;51.038;16.974;2022-10-16T09:33:45;3.12;;;2.08;;
23634;SDS011;11994;51.038;16.974;2022-10-16T09:36:25;4.03;;;2.10;;
23634;SDS011;11994;51.038;16.974;2022-10-16T09:39:08;2.80;;;2.20;;
23634;SDS011;11994;51.038;16.974;2022-10-16T09:41:40;3.67;;;2.05;;
23634;SDS011;11994;51.038;16.974;2022-10-16T09:44:25;2.95;;;2.10;;
23634;SDS011;11994;51.038;16.974;2022-10-16T09:47:55;3.08;;;1.90;;
23634;SDS011;11994;51.038;16.974;2022-10-16T09:52:27;6.97;;;2.40;;
23634;SDS011;11994;51.038;16.974;2022-10-16T09:54:59;5.50;;;2.30;;
23634;SDS011;11994;51.038;16.974;2022-10-16T09:57:30;4.65;;;2.10;;
23634;SDS011;11994;51.038;16.974;2022-10-16T09:59:57;3.90;;;1.80;;
23634;SDS011;11994;51.038;16.974;2022-10-16T10:02:31;2.35;;;1.70;;
23634;SDS011;11994;51.038;16.974;2022-10-16T10:05:04;4.50;;;2.10;;
23634;SDS011;11994;51.038;16.974;2022-10-16T10:07:35;3.25;;;2.30;;
23634;SDS011;11994;51.038;16.974;2022-10-16T10:10:05;3.47;;;2.22;;
23634;SDS011;11994;51.038;16.974;2022-10-16T10:12:51;5.08;;;2.55;;
23634;SDS011;11994;51.038;16.974;2022-10-16T10:15:17;3.58;;;2.20;;
23634;SDS011;11994;51.038;16.974;2022-10-16T10:17:49;4.70;;;2.00;;
23634;SDS011;11994;51.038;16.974;2022-10-16T10:20:23;2.65;;;1.52;;
23634;SDS011;11994;51.038;16.974;2022-10-16T10:22:52;5.15;;;1.70;;
23634;SDS011;11994;51.038;16.974;2022-10-16T10:31:22;3.90;;;1.80;;
23634;SDS011;11994;51.038;16.974;2022-10-16T10:44:21;2.40;;;1.50;;
23634;SDS011;11994;51.038;16.974;2022-10-16T10:47:02;4.03;;;1.20;;
23634;SDS011;11994;51.038;16.974;2022-10-16T10:58:06;4.70;;;1.90;;
23634;SDS011;11994;51.038;16.974;2022-10-16T11:09:39;2.98;;;1.77;;
23634;SDS011;11994;51.038;16.974;2022-10-16T11:12:15;2.72;;;1.50;;
23634;SDS011;11994;51.038;16.974;2022-10-16T11:20:16;2.80;;;1.35;;
23634;SDS011;11994;51.038;16.974;2022-10-16T11:23:26;2.15;;;1.50;;
23634;SDS011;11994;51.038;16.974;2022-10-16T11:25:59;3.10;;;1.50;;
23634;SDS011;11994;51.038;16.974;2022-10-16T11:28:27;2.80;;;1.40;;
23634;SDS011;11994;51.038;16.974;2022-10-16T11:31:17;4.42;;;2.10;;
23634;SDS011;11994;51.038;16.974;2022-10-16T11:36:51;2.62;;;1.75;;
23634;SDS011;11994;51.038;16.974;2022-10-16T11:39:21;2.40;;;1.40;;
23634;SDS011;11994;51.038;16.974;2022-10-16T11:50:28;2.80;;;2.00;;
23634;SDS011;11994;51.038;16.974;2022-10-16T11:56:00;4.53;;;2.20;;
23634;SDS011;11994;51.038;16.974;2022-10-16T11:58:31;3.33;;;2.33;;
23634;SDS011;11994;51.038;16.974;2022-10-16T12:01:10;3.47;;;2.00;;
23634;SDS011;11994;51.038;16.974;2022-10-16T12:07:11;5.42;;;2.65;;
23634;SDS011;11994;51.038;16.974;2022-10-16T12:09:38;3.87;;;2.90;;
23634;SDS011;11994;51.038;16.974;2022-10-16T12:12:36;4.95;;;2.95;;
23634;SDS011;11994;51.038;16.974;2022-10-16T12:15:03;5.03;;;3.22;;
23634;SDS011;11994;51.038;16.974;2022-10-16T12:17:34;4.45;;;2.98;;
23634;SDS011;11994;51.038;16.974;2022-10-16T12:22:48;5.80;;;3.83;;
23634;SDS011;11994;51.038;16.974;2022-10-16T12:25:26;5.25;;;4.00;;
23634;SDS011;11994;51.038;16.974;2022-10-16T12:28:17;5.33;;;4.28;;
23634;SDS011;11994;51.038;16.974;2022-10-16T12:31:20;5.72;;;4.20;;
23634;SDS011;11994;51.038;16.974;2022-10-16T12:33:33;5.95;;;4.67;;
23634;SDS011;11994;51.038;16.974;2022-10-16T12:36:11;5.72;;;4.65;;
23634;SDS011;11994;51.038;16.974;2022-10-16T12:41:26;4.62;;;3.80;;
23634;SDS011;11994;51.038;16.974;2022-10-16T12:43:53;5.15;;;4.22;;
23634;SDS011;11994;51.038;16.974;2022-10-16T12:46:21;5.25;;;4.47;;
23634;SDS011;11994;51.038;16.974;2022-10-16T12:48:51;4.85;;;4.35;;
23634;SDS011;11994;51.038;16.974;2022-10-16T12:57:13;6.83;;;5.37;;
23634;SDS011;11994;51.038;16.974;2022-10-16T13:00:04;6.78;;;4.95;;
23634;SDS011;11994;51.038;16.974;2022-10-16T13:12:15;5.62;;;4.33;;
23634;SDS011;11994;51.038;16.974;2022-10-16T13:20:30;5.35;;;4.28;;
23634;SDS011;11994;51.038;16.974;2022-10-16T13:23:06;5.55;;;3.85;;
23634;SDS011;11994;51.038;16.974;2022-10-16T13:26:05;5.40;;;3.47;;
23634;SDS011;11994;51.038;16.974;2022-10-16T13:28:40;4.78;;;3.05;;
23634;SDS011;11994;51.038;16.974;2022-10-16T13:31:10;4.67;;;3.00;;
23634;SDS011;11994;51.038;16.974;2022-10-16T13:33:50;4.05;;;2.58;;
23634;SDS011;11994;51.038;16.974;2022-10-16T13:36:26;4.90;;;2.80;;
23634;SDS011;11994;51.038;16.974;2022-10-16T13:41:43;6.15;;;3.17;;
23634;SDS011;11994;51.038;16.974;2022-10-16T13:44:17;3.05;;;2.60;;
23634;SDS011;11994;51.038;16.974;2022-10-16T13:46:45;4.53;;;3.05;;
23634;SDS011;11994;51.038;16.974;2022-10-16T13:49:13;4.10;;;2.90;;
23634;SDS011;11994;51.038;16.974;2022-10-16T13:54:19;7.12;;;3.12;;
23634;SDS011;11994;51.038;16.974;2022-10-16T13:56:46;7.17;;;3.17;;
23634;SDS011;11994;51.038;16.974;2022-10-16T13:59:25;3.90;;;3.00;;
23634;SDS011;11994;51.038;16.974;2022-10-16T14:02:00;5.37;;;2.80;;
23634;SDS011;11994;51.038;16.974;2022-10-16T14:04:34;5.08;;;2.72;;
23634;SDS011;11994;51.038;16.974;2022-10-16T14:07:04;4.40;;;2.90;;
23634;SDS011;11994;51.038;16.974;2022-10-16T14:09:30;4.60;;;2.95;;
23634;SDS011;11994;51.038;16.974;2022-10-16T14:11:58;4.97;;;3.10;;
23634;SDS011;11994;51.038;16.974;2022-10-16T14:14:31;4.30;;;3.17;;
23634;SDS011;11994;51.038;16.974;2022-10-16T14:17:26;5.80;;;3.83;;
23634;SDS011;11994;51.038;16.974;2022-10-16T14:19:59;4.85;;;4.10;;
23634;SDS011;11994;51.038;16.974;2022-10-16T14:22:38;6.62;;;3.85;;
23634;SDS011;11994;51.038;16.974;2022-10-16T14:28:00;4.22;;;2.37;;
23634;SDS011;11994;51.038;16.974;2022-10-16T14:30:28;6.03;;;3.92;;
23634;SDS011;11994;51.038;16.974;2022-10-16T14:33:00;4.40;;;3.77;;
23634;SDS011;11994;51.038;16.974;2022-10-16T14:35:28;4.03;;;3.20;;
23634;SDS011;11994;51.038;16.974;2022-10-16T14:38:00;4.90;;;3.40;;
23634;SDS011;11994;51.038;16.974;2022-10-16T14:40:32;5.75;;;3.27;;
23634;SDS011;11994;51.038;16.974;2022-10-16T14:42:59;6.35;;;3.50;;
23634;SDS011;11994;51.038;16.974;2022-10-16T14:45:27;6.00;;;3.02;;
23634;SDS011;11994;51.038;16.974;2022-10-16T14:47:57;3.75;;;3.17;;
23634;SDS011;11994;51.038;16.974;2022-10-16T14:50:30;6.17;;;3.45;;
23634;SDS011;11994;51.038;16.974;2022-10-16T14:52:56;3.90;;;2.77;;
23634;SDS011;11994;51.038;16.974;2022-10-16T14:55:24;4.00;;;3.05;;
23634;SDS011;11994;51.038;16.974;2022-10-16T14:57:51;5.47;;;3.60;;
23634;SDS011;11994;51.038;16.974;2022-10-16T15:00:21;4.50;;;3.33;;
23634;SDS011;11994;51.038;16.974;2022-10-16T15:02:49;5.70;;;3.75;;
23634;SDS011;11994;51.038;16.974;2022-10-16T15:05:20;5.12;;;3.85;;
23634;SDS011;11994;51.038;16.974;2022-10-16T15:07:49;5.75;;;4.05;;
23634;SDS011;11994;51.038;16.974;2022-10-16T15:10:18;5.12;;;3.67;;
23634;SDS011;11994;51.038;16.974;2022-10-16T15:12:47;4.45;;;3.50;;
23634;SDS011;11994;51.038;16.974;2022-10-16T15:18:00;7.70;;;3.60;;
23634;SDS011;11994;51.038;16.974;2022-10-16T15:20:28;6.15;;;3.60;;
23634;SDS011;11994;51.038;16.974;2022-10-16T15:22:59;6.55;;;3.65;;
23634;SDS011;11994;51.038;16.974;2022-10-16T15:25:32;5.42;;;4.00;;
23634;SDS011;11994;51.038;16.974;2022-10-16T15:28:05;6.37;;;3.98;;
23634;SDS011;11994;51.038;16.974;2022-10-16T15:30:32;6.55;;;4.03;;
23634;SDS011;11994;51.038;16.974;2022-10-16T15:32:58;10.20;;;4.45;;
23634;SDS011;11994;51.038;16.974;2022-10-16T15:35:25;6.70;;;4.12;;
23634;SDS011;11994;51.038;16.974;2022-10-16T15:37:51;6.45;;;4.37;;
23634;SDS011;11994;51.038;16.974;2022-10-16T15:40:17;6.12;;;4.30;;
23634;SDS011;11994;51.038;16.974;2022-10-16T15:42:44;4.75;;;3.87;;
23634;SDS011;11994;51.038;16.974;2022-10-16T15:45:11;6.60;;;3.80;;
23634;SDS011;11994;51.038;16.974;2022-10-16T15:47:38;8.48;;;4.20;;
23634;SDS011;11994;51.038;16.974;2022-10-16T15:50:09;5.00;;;4.33;;
23634;SDS011;11994;51.038;16.974;2022-10-16T15:52:36;5.65;;;4.10;;
23634;SDS011;11994;51.038;16.974;2022-10-16T15:55:09;10.45;;;5.00;;
23634;SDS011;11994;51.038;16.974;2022-10-16T15:57:34;6.25;;;5.62;;
23634;SDS011;11994;51.038;16.974;2022-10-16T16:00:08;6.53;;;5.15;;
23634;SDS011;11994;51.038;16.974;2022-10-16T16:02:36;9.33;;;6.17;;
23634;SDS011;11994;51.038;16.974;2022-10-16T16:05:02;8.50;;;6.75;;
23634;SDS011;11994;51.038;16.974;2022-10-16T16:07:32;6.95;;;5.90;;
23634;SDS011;11994;51.038;16.974;2022-10-16T16:10:01;9.33;;;6.05;;
23634;SDS011;11994;51.038;16.974;2022-10-16T16:12:30;8.53;;;6.37;;
23634;SDS011;11994;51.038;16.974;2022-10-16T16:14:57;9.25;;;7.05;;
23634;SDS011;11994;51.038;16.974;2022-10-16T16:17:23;9.75;;;8.25;;
23634;SDS011;11994;51.038;16.974;2022-10-16T16:19:49;10.65;;;9.18;;
23634;SDS011;11994;51.038;16.974;2022-10-16T16:22:16;12.47;;;9.43;;
23634;SDS011;11994;51.038;16.974;2022-10-16T16:24:43;11.88;;;10.00;;
23634;SDS011;11994;51.038;16.974;2022-10-16T16:27:09;13.72;;;10.05;;
23634;SDS011;11994;51.038;16.974;2022-10-16T16:29:36;13.68;;;8.60;;
23634;SDS011;11994;51.038;16.974;2022-10-16T16:32:02;9.95;;;8.23;;
23634;SDS011;11994;51.038;16.974;2022-10-16T16:34:28;10.15;;;8.28;;
23634;SDS011;11994;51.038;16.974;2022-10-16T16:36:55;10.70;;;8.75;;
23634;SDS011;11994;51.038;16.974;2022-10-16T16:39:22;9.83;;;8.83;;
23634;SDS011;11994;51.038;16.974;2022-10-16T16:41:48;12.45;;;9.78;;
23634;SDS011;11994;51.038;16.974;2022-10-16T16:44:15;13.70;;;9.58;;
23634;SDS011;11994;51.038;16.974;2022-10-16T16:46:42;12.73;;;9.30;;
23634;SDS011;11994;51.038;16.974;2022-10-16T16:49:10;10.38;;;7.92;;
23634;SDS011;11994;51.038;16.974;2022-10-16T16:51:38;9.90;;;7.95;;
23634;SDS011;11994;51.038;16.974;2022-10-16T16:54:05;8.90;;;7.67;;
23634;SDS011;11994;51.038;16.974;2022-10-16T16:56:32;12.80;;;8.20;;
23634;SDS011;11994;51.038;16.974;2022-10-16T16:58:59;11.83;;;9.78;;
23634;SDS011;11994;51.038;16.974;2022-10-16T17:01:25;10.75;;;8.95;;
23634;SDS011;11994;51.038;16.974;2022-10-16T17:03:53;12.55;;;10.13;;
23634;SDS011;11994;51.038;16.974;2022-10-16T17:06:22;14.75;;;10.58;;
23634;SDS011;11994;51.038;16.974;2022-10-16T17:08:51;13.30;;;9.38;;
23634;SDS011;11994;51.038;16.974;2022-10-16T17:11:23;9.73;;;8.28;;
23634;SDS011;11994;51.038;16.974;2022-10-16T17:16:15;11.43;;;9.00;;
23634;SDS011;11994;51.038;16.974;2022-10-16T17:18:42;14.47;;;10.05;;